Terminal Aerodrome Forecast
Issued by NWS

Home | Current Version | Previous Version | Text Only | Print | Product List | Glossary On
Versions: 1 2 3 4 5 6 7 8 9 10 11 12 13 14 15
000
FTUS46 KMTR 290537
TAFMRY
TAF
KMRY 290537Z 2906/3006 24004KT P6SM FEW250
     FM291800 29010KT P6SM FEW250
     FM300200 29008KT P6SM SCT012 BKN250
     FM300300 25004KT P6SM BKN008 OVC010=

USA.gov is the U.S. government's official web portal to all federal, state and local government web resources and services.